sensor_id;sensor_type;location;lat;lon;timestamp;temperature;humidity
39899;DHT22;25571;47.876;10.642;2023-07-29T00:00:37;16.30;99.90
39899;DHT22;25571;47.876;10.642;2023-07-29T00:03:02;16.30;99.90
39899;DHT22;25571;47.876;10.642;2023-07-29T00:05:28;16.50;99.90
39899;DHT22;25571;47.876;10.642;2023-07-29T00:07:53;16.50;99.90
39899;DHT22;25571;47.876;10.642;2023-07-29T00:10:19;16.50;99.90
39899;DHT22;25571;47.876;10.642;2023-07-29T00:12:44;16.50;99.90
39899;DHT22;25571;47.876;10.642;2023-07-29T00:15:11;16.50;99.90
39899;DHT22;25571;47.876;10.642;2023-07-29T00:17:36;16.40;99.90
39899;DHT22;25571;47.876;10.642;2023-07-29T00:20:02;16.40;99.90
39899;DHT22;25571;47.876;10.642;2023-07-29T00:22:28;16.30;99.90
39899;DHT22;25571;47.876;10.642;2023-07-29T00:24:53;16.20;99.90
39899;DHT22;25571;47.876;10.642;2023-07-29T00:27:25;16.40;99.90
39899;DHT22;25571;47.876;10.642;2023-07-29T00:29:51;16.20;99.90
39899;DHT22;25571;47.876;10.642;2023-07-29T00:32:17;16.20;99.90
39899;DHT22;25571;47.876;10.642;2023-07-29T00:34:42;16.10;99.90
39899;DHT22;25571;47.876;10.642;2023-07-29T00:37:08;16.10;99.90
39899;DHT22;25571;47.876;10.642;2023-07-29T00:39:33;16.00;99.90
39899;DHT22;25571;47.876;10.642;2023-07-29T00:41:59;16.00;99.90
39899;DHT22;25571;47.876;10.642;2023-07-29T00:44:24;16.00;99.90
39899;DHT22;25571;47.876;10.642;2023-07-29T00:46:50;16.00;99.90
39899;DHT22;25571;47.876;10.642;2023-07-29T00:49:17;15.90;99.90
39899;DHT22;25571;47.876;10.642;2023-07-29T00:51:42;15.90;99.90
39899;DHT22;25571;47.876;10.642;2023-07-29T00:54:08;15.90;99.90
39899;DHT22;25571;47.876;10.642;2023-07-29T00:56:33;15.80;99.90
39899;DHT22;25571;47.876;10.642;2023-07-29T00:58:59;15.90;99.90
39899;DHT22;25571;47.876;10.642;2023-07-29T01:01:30;15.80;99.90
39899;DHT22;25571;47.876;10.642;2023-07-29T01:03:56;15.80;99.90
39899;DHT22;25571;47.876;10.642;2023-07-29T01:06:39;15.90;99.90
39899;DHT22;25571;47.876;10.642;2023-07-29T01:09:25;15.80;99.90
39899;DHT22;25571;47.876;10.642;2023-07-29T01:11:58;15.70;99.90
39899;DHT22;25571;47.876;10.642;2023-07-29T01:14:34;15.60;99.90
39899;DHT22;25571;47.876;10.642;2023-07-29T01:17:03;15.50;99.90
39899;DHT22;25571;47.876;10.642;2023-07-29T01:21:57;15.80;99.90
39899;DHT22;25571;47.876;10.642;2023-07-29T01:24:23;15.90;99.90
39899;DHT22;25571;47.876;10.642;2023-07-29T01:26:49;15.90;99.90
39899;DHT22;25571;47.876;10.642;2023-07-29T01:29:14;16.00;99.90
39899;DHT22;25571;47.876;10.642;2023-07-29T01:31:43;16.00;99.90
39899;DHT22;25571;47.876;10.642;2023-07-29T01:34:13;16.10;99.90
39899;DHT22;25571;47.876;10.642;2023-07-29T01:36:42;16.10;99.90
39899;DHT22;25571;47.876;10.642;2023-07-29T01:39:10;15.80;99.90
39899;DHT22;25571;47.876;10.642;2023-07-29T01:41:36;15.70;99.90
39899;DHT22;25571;47.876;10.642;2023-07-29T01:44:02;15.70;99.90
39899;DHT22;25571;47.876;10.642;2023-07-29T01:46:28;15.80;99.90
39899;DHT22;25571;47.876;10.642;2023-07-29T01:48:53;15.90;99.90
39899;DHT22;25571;47.876;10.642;2023-07-29T01:51:19;16.20;99.90
39899;DHT22;25571;47.876;10.642;2023-07-29T01:53:44;16.00;99.90
39899;DHT22;25571;47.876;10.642;2023-07-29T01:56:10;16.00;99.90
39899;DHT22;25571;47.876;10.642;2023-07-29T01:58:36;16.00;99.90
39899;DHT22;25571;47.876;10.642;2023-07-29T02:01:01;16.00;99.90
39899;DHT22;25571;47.876;10.642;2023-07-29T02:03:26;16.00;99.90
39899;DHT22;25571;47.876;10.642;2023-07-29T02:05:52;16.00;99.90
39899;DHT22;25571;47.876;10.642;2023-07-29T02:08:17;16.00;99.90
39899;DHT22;25571;47.876;10.642;2023-07-29T02:10:43;16.00;99.90
39899;DHT22;25571;47.876;10.642;2023-07-29T02:13:11;16.20;99.90
39899;DHT22;25571;47.876;10.642;2023-07-29T02:15:36;16.10;99.90
39899;DHT22;25571;47.876;10.642;2023-07-29T02:18:02;16.10;99.90
39899;DHT22;25571;47.876;10.642;2023-07-29T02:20:28;16.20;99.90
39899;DHT22;25571;47.876;10.642;2023-07-29T02:22:54;16.10;99.90
39899;DHT22;25571;47.876;10.642;2023-07-29T02:25:20;16.10;99.90
39899;DHT22;25571;47.876;10.642;2023-07-29T02:27:45;16.10;99.90
39899;DHT22;25571;47.876;10.642;2023-07-29T02:30:11;16.10;99.90
39899;DHT22;25571;47.876;10.642;2023-07-29T02:32:37;16.10;99.90
39899;DHT22;25571;47.876;10.642;2023-07-29T02:35:03;16.10;99.90
39899;DHT22;25571;47.876;10.642;2023-07-29T02:37:30;16.20;99.90
39899;DHT22;25571;47.876;10.642;2023-07-29T02:39:55;16.20;99.90
39899;DHT22;25571;47.876;10.642;2023-07-29T02:42:20;16.30;99.90
39899;DHT22;25571;47.876;10.642;2023-07-29T02:44:46;16.30;99.90
39899;DHT22;25571;47.876;10.642;2023-07-29T02:47:12;16.30;99.90
39899;DHT22;25571;47.876;10.642;2023-07-29T02:49:37;16.40;99.90
39899;DHT22;25571;47.876;10.642;2023-07-29T02:52:03;16.40;99.90
39899;DHT22;25571;47.876;10.642;2023-07-29T02:54:28;16.50;99.90
39899;DHT22;25571;47.876;10.642;2023-07-29T02:56:54;16.50;99.90
39899;DHT22;25571;47.876;10.642;2023-07-29T02:59:19;16.40;99.90
39899;DHT22;25571;47.876;10.642;2023-07-29T03:01:45;16.10;99.90
39899;DHT22;25571;47.876;10.642;2023-07-29T03:04:10;16.00;99.90
39899;DHT22;25571;47.876;10.642;2023-07-29T03:06:38;16.00;99.90
39899;DHT22;25571;47.876;10.642;2023-07-29T03:09:03;16.10;99.90
39899;DHT22;25571;47.876;10.642;2023-07-29T03:11:30;16.10;99.90
39899;DHT22;25571;47.876;10.642;2023-07-29T03:13:56;16.10;99.90
39899;DHT22;25571;47.876;10.642;2023-07-29T03:16:22;16.10;99.90
39899;DHT22;25571;47.876;10.642;2023-07-29T03:18:47;16.00;99.90
39899;DHT22;25571;47.876;10.642;2023-07-29T03:21:13;16.10;99.90
39899;DHT22;25571;47.876;10.642;2023-07-29T03:23:38;15.90;99.90
39899;DHT22;25571;47.876;10.642;2023-07-29T03:26:04;15.90;99.90
39899;DHT22;25571;47.876;10.642;2023-07-29T03:28:36;15.80;99.90
39899;DHT22;25571;47.876;10.642;2023-07-29T03:31:02;15.80;99.90
39899;DHT22;25571;47.876;10.642;2023-07-29T03:33:28;15.80;99.90
39899;DHT22;25571;47.876;10.642;2023-07-29T03:35:53;15.80;99.90
39899;DHT22;25571;47.876;10.642;2023-07-29T03:38:19;15.80;99.90
39899;DHT22;25571;47.876;10.642;2023-07-29T03:40:45;15.90;99.90
39899;DHT22;25571;47.876;10.642;2023-07-29T03:43:10;16.00;99.90
39899;DHT22;25571;47.876;10.642;2023-07-29T03:45:36;15.80;99.90
39899;DHT22;25571;47.876;10.642;2023-07-29T03:48:02;15.80;99.90
39899;DHT22;25571;47.876;10.642;2023-07-29T03:50:28;15.80;99.90
39899;DHT22;25571;47.876;10.642;2023-07-29T03:52:54;15.80;99.90
39899;DHT22;25571;47.876;10.642;2023-07-29T03:55:20;15.90;99.90
39899;DHT22;25571;47.876;10.642;2023-07-29T03:57:46;15.80;99.90
39899;DHT22;25571;47.876;10.642;2023-07-29T04:00:11;15.70;99.90
39899;DHT22;25571;47.876;10.642;2023-07-29T04:02:37;15.80;99.90
39899;DHT22;25571;47.876;10.642;2023-07-29T04:05:05;15.80;99.90
39899;DHT22;25571;47.876;10.642;2023-07-29T04:07:34;15.90;99.90
39899;DHT22;25571;47.876;10.642;2023-07-29T04:09:59;15.90;99.90
39899;DHT22;25571;47.876;10.642;2023-07-29T04:12:24;16.00;99.90
39899;DHT22;25571;47.876;10.642;2023-07-29T04:14:50;16.10;99.90
39899;DHT22;25571;47.876;10.642;2023-07-29T04:17:15;16.10;99.90
39899;DHT22;25571;47.876;10.642;2023-07-29T04:19:41;16.30;99.90
39899;DHT22;25571;47.876;10.642;2023-07-29T04:22:06;16.20;99.90
39899;DHT22;25571;47.876;10.642;2023-07-29T04:24:32;16.30;99.90
39899;DHT22;25571;47.876;10.642;2023-07-29T04:26:57;16.30;99.90
39899;DHT22;25571;47.876;10.642;2023-07-29T04:29:23;16.40;99.90
39899;DHT22;25571;47.876;10.642;2023-07-29T04:31:49;16.40;99.90
39899;DHT22;25571;47.876;10.642;2023-07-29T04:34:15;16.40;99.90
39899;DHT22;25571;47.876;10.642;2023-07-29T04:36:40;16.50;99.90
39899;DHT22;25571;47.876;10.642;2023-07-29T04:39:06;16.60;99.90
39899;DHT22;25571;47.876;10.642;2023-07-29T04:41:31;16.60;99.90
39899;DHT22;25571;47.876;10.642;2023-07-29T04:43:57;16.40;99.90
39899;DHT22;25571;47.876;10.642;2023-07-29T04:46:22;16.20;99.90
39899;DHT22;25571;47.876;10.642;2023-07-29T04:48:48;16.10;99.90
39899;DHT22;25571;47.876;10.642;2023-07-29T04:51:13;16.20;99.90
39899;DHT22;25571;47.876;10.642;2023-07-29T04:53:39;16.20;99.90
39899;DHT22;25571;47.876;10.642;2023-07-29T04:56:04;16.30;99.90
39899;DHT22;25571;47.876;10.642;2023-07-29T04:58:30;16.40;99.90
39899;DHT22;25571;47.876;10.642;2023-07-29T05:00:55;16.40;99.90
39899;DHT22;25571;47.876;10.642;2023-07-29T05:03:21;16.40;99.90
39899;DHT22;25571;47.876;10.642;2023-07-29T05:05:47;16.30;99.90
39899;DHT22;25571;47.876;10.642;2023-07-29T05:08:12;16.40;99.90
39899;DHT22;25571;47.876;10.642;2023-07-29T05:10:38;16.30;99.90
39899;DHT22;25571;47.876;10.642;2023-07-29T05:13:03;16.40;99.90
39899;DHT22;25571;47.876;10.642;2023-07-29T05:15:29;16.30;99.90
39899;DHT22;25571;47.876;10.642;2023-07-29T05:17:54;16.40;99.90
39899;DHT22;25571;47.876;10.642;2023-07-29T05:20:20;16.40;99.90
39899;DHT22;25571;47.876;10.642;2023-07-29T05:22:45;16.40;99.90
39899;DHT22;25571;47.876;10.642;2023-07-29T05:25:11;16.40;99.90
39899;DHT22;25571;47.876;10.642;2023-07-29T05:27:36;16.40;99.90
39899;DHT22;25571;47.876;10.642;2023-07-29T05:30:02;16.50;99.90
39899;DHT22;25571;47.876;10.642;2023-07-29T05:32:27;16.60;99.90
39899;DHT22;25571;47.876;10.642;2023-07-29T05:34:53;16.60;99.90
39899;DHT22;25571;47.876;10.642;2023-07-29T05:37:18;16.70;99.90
39899;DHT22;25571;47.876;10.642;2023-07-29T05:39:44;16.70;99.90
39899;DHT22;25571;47.876;10.642;2023-07-29T05:42:09;16.70;99.90
39899;DHT22;25571;47.876;10.642;2023-07-29T05:44:35;16.60;99.90
39899;DHT22;25571;47.876;10.642;2023-07-29T05:47:00;16.70;99.90
39899;DHT22;25571;47.876;10.642;2023-07-29T05:49:25;16.70;99.90
39899;DHT22;25571;47.876;10.642;2023-07-29T05:51:51;16.60;99.90
39899;DHT22;25571;47.876;10.642;2023-07-29T05:54:18;16.60;99.90
39899;DHT22;25571;47.876;10.642;2023-07-29T05:56:43;16.60;99.90
39899;DHT22;25571;47.876;10.642;2023-07-29T05:59:09;16.60;99.90
39899;DHT22;25571;47.876;10.642;2023-07-29T06:01:34;16.60;99.90
39899;DHT22;25571;47.876;10.642;2023-07-29T06:04:00;16.60;99.90
39899;DHT22;25571;47.876;10.642;2023-07-29T06:06:25;16.80;99.90
39899;DHT22;25571;47.876;10.642;2023-07-29T06:08:51;16.70;99.90
39899;DHT22;25571;47.876;10.642;2023-07-29T06:11:16;16.60;99.90
39899;DHT22;25571;47.876;10.642;2023-07-29T06:13:42;16.60;99.90
39899;DHT22;25571;47.876;10.642;2023-07-29T06:16:07;16.40;99.90
39899;DHT22;25571;47.876;10.642;2023-07-29T06:18:33;16.40;99.90
39899;DHT22;25571;47.876;10.642;2023-07-29T06:20:58;16.50;99.90
39899;DHT22;25571;47.876;10.642;2023-07-29T06:23:24;16.50;99.90
39899;DHT22;25571;47.876;10.642;2023-07-29T06:25:49;16.40;99.90
39899;DHT22;25571;47.876;10.642;2023-07-29T06:28:15;16.30;99.90
39899;DHT22;25571;47.876;10.642;2023-07-29T06:30:40;16.40;99.90
39899;DHT22;25571;47.876;10.642;2023-07-29T06:33:06;16.40;99.90
39899;DHT22;25571;47.876;10.642;2023-07-29T06:35:31;16.80;99.90
39899;DHT22;25571;47.876;10.642;2023-07-29T06:37:57;16.80;99.90
39899;DHT22;25571;47.876;10.642;2023-07-29T06:40:22;17.00;99.90
39899;DHT22;25571;47.876;10.642;2023-07-29T06:42:48;16.80;99.90
39899;DHT22;25571;47.876;10.642;2023-07-29T06:45:13;17.00;99.90
39899;DHT22;25571;47.876;10.642;2023-07-29T06:47:40;17.20;99.90
39899;DHT22;25571;47.876;10.642;2023-07-29T06:50:06;17.40;99.90
39899;DHT22;25571;47.876;10.642;2023-07-29T06:52:32;17.50;99.90
39899;DHT22;25571;47.876;10.642;2023-07-29T06:54:57;17.60;99.90
39899;DHT22;25571;47.876;10.642;2023-07-29T06:57:23;17.70;99.90
39899;DHT22;25571;47.876;10.642;2023-07-29T06:59:48;17.80;99.90
39899;DHT22;25571;47.876;10.642;2023-07-29T07:02:14;17.90;99.90
39899;DHT22;25571;47.876;10.642;2023-07-29T07:04:39;18.10;99.90
39899;DHT22;25571;47.876;10.642;2023-07-29T07:07:05;18.40;99.90
39899;DHT22;25571;47.876;10.642;2023-07-29T07:09:30;18.70;99.90
39899;DHT22;25571;47.876;10.642;2023-07-29T07:11:56;18.90;99.90
39899;DHT22;25571;47.876;10.642;2023-07-29T07:14:21;19.30;99.90
39899;DHT22;25571;47.876;10.642;2023-07-29T07:16:47;19.70;99.90
39899;DHT22;25571;47.876;10.642;2023-07-29T07:19:12;19.60;99.90
39899;DHT22;25571;47.876;10.642;2023-07-29T07:21:37;19.80;99.90
39899;DHT22;25571;47.876;10.642;2023-07-29T07:24:03;20.10;99.90
39899;DHT22;25571;47.876;10.642;2023-07-29T07:26:28;20.40;99.90
39899;DHT22;25571;47.876;10.642;2023-07-29T07:28:54;20.50;99.90
39899;DHT22;25571;47.876;10.642;2023-07-29T07:31:20;20.40;99.90
39899;DHT22;25571;47.876;10.642;2023-07-29T07:33:45;20.30;99.90
39899;DHT22;25571;47.876;10.642;2023-07-29T07:36:10;20.10;99.90
39899;DHT22;25571;47.876;10.642;2023-07-29T07:38:36;19.90;99.90
39899;DHT22;25571;47.876;10.642;2023-07-29T07:41:02;19.80;99.90
39899;DHT22;25571;47.876;10.642;2023-07-29T07:43:27;19.80;99.90
39899;DHT22;25571;47.876;10.642;2023-07-29T07:45:59;20.00;99.90
39899;DHT22;25571;47.876;10.642;2023-07-29T07:48:26;20.40;99.90
39899;DHT22;25571;47.876;10.642;2023-07-29T07:50:51;20.70;99.90
39899;DHT22;25571;47.876;10.642;2023-07-29T07:53:17;21.00;99.90
39899;DHT22;25571;47.876;10.642;2023-07-29T07:55:42;21.40;99.90
39899;DHT22;25571;47.876;10.642;2023-07-29T07:58:08;21.50;99.90
39899;DHT22;25571;47.876;10.642;2023-07-29T08:00:33;21.40;99.90
39899;DHT22;25571;47.876;10.642;2023-07-29T08:02:59;21.40;99.90
39899;DHT22;25571;47.876;10.642;2023-07-29T08:05:24;21.30;99.90
39899;DHT22;25571;47.876;10.642;2023-07-29T08:07:50;21.40;99.90
39899;DHT22;25571;47.876;10.642;2023-07-29T08:10:15;21.20;99.90
39899;DHT22;25571;47.876;10.642;2023-07-29T08:12:41;21.00;99.90
39899;DHT22;25571;47.876;10.642;2023-07-29T08:15:06;21.00;99.90
39899;DHT22;25571;47.876;10.642;2023-07-29T08:17:32;21.10;99.90
39899;DHT22;25571;47.876;10.642;2023-07-29T08:19:57;21.20;99.90
39899;DHT22;25571;47.876;10.642;2023-07-29T08:22:23;19.80;99.90
39899;DHT22;25571;47.876;10.642;2023-07-29T08:24:48;21.40;99.90
39899;DHT22;25571;47.876;10.642;2023-07-29T08:27:14;22.00;99.90
39899;DHT22;25571;47.876;10.642;2023-07-29T08:29:39;22.60;99.90
39899;DHT22;25571;47.876;10.642;2023-07-29T08:32:07;23.00;99.90
39899;DHT22;25571;47.876;10.642;2023-07-29T08:34:32;23.80;99.90
39899;DHT22;25571;47.876;10.642;2023-07-29T08:36:58;24.90;99.90
39899;DHT22;25571;47.876;10.642;2023-07-29T08:39:23;25.50;99.90
39899;DHT22;25571;47.876;10.642;2023-07-29T08:42:02;25.50;99.90
39899;DHT22;25571;47.876;10.642;2023-07-29T08:44:35;26.40;99.90
39899;DHT22;25571;47.876;10.642;2023-07-29T08:47:02;27.90;99.90
39899;DHT22;25571;47.876;10.642;2023-07-29T08:49:27;28.30;99.90
39899;DHT22;25571;47.876;10.642;2023-07-29T08:51:53;28.60;99.90
39899;DHT22;25571;47.876;10.642;2023-07-29T08:54:20;29.70;99.90
39899;DHT22;25571;47.876;10.642;2023-07-29T08:56:45;32.90;99.90
39899;DHT22;25571;47.876;10.642;2023-07-29T08:59:13;33.00;99.40
39899;DHT22;25571;47.876;10.642;2023-07-29T09:01:38;31.30;99.30
39899;DHT22;25571;47.876;10.642;2023-07-29T09:04:04;33.90;96.20
39899;DHT22;25571;47.876;10.642;2023-07-29T09:06:30;35.70;92.00
39899;DHT22;25571;47.876;10.642;2023-07-29T09:08:56;33.50;92.00
39899;DHT22;25571;47.876;10.642;2023-07-29T09:11:23;31.40;95.60
39899;DHT22;25571;47.876;10.642;2023-07-29T09:13:48;32.70;94.50
39899;DHT22;25571;47.876;10.642;2023-07-29T09:16:14;31.60;95.40
39899;DHT22;25571;47.876;10.642;2023-07-29T09:18:40;30.50;97.00
39899;DHT22;25571;47.876;10.642;2023-07-29T09:21:05;29.50;98.40
39899;DHT22;25571;47.876;10.642;2023-07-29T09:23:41;29.10;99.00
39899;DHT22;25571;47.876;10.642;2023-07-29T09:30:16;27.20;97.80
39899;DHT22;25571;47.876;10.642;2023-07-29T09:32:42;26.40;97.20
39899;DHT22;25571;47.876;10.642;2023-07-29T09:35:12;25.70;98.50
39899;DHT22;25571;47.876;10.642;2023-07-29T09:37:38;25.10;99.80
39899;DHT22;25571;47.876;10.642;2023-07-29T09:40:06;24.40;99.90
39899;DHT22;25571;47.876;10.642;2023-07-29T09:42:32;23.70;99.90
39899;DHT22;25571;47.876;10.642;2023-07-29T09:44:58;23.30;99.90
39899;DHT22;25571;47.876;10.642;2023-07-29T09:47:25;23.00;99.90
39899;DHT22;25571;47.876;10.642;2023-07-29T09:49:51;22.70;99.90
39899;DHT22;25571;47.876;10.642;2023-07-29T09:52:18;22.50;99.90
39899;DHT22;25571;47.876;10.642;2023-07-29T09:54:45;22.20;99.90
39899;DHT22;25571;47.876;10.642;2023-07-29T09:57:15;22.00;99.90
39899;DHT22;25571;47.876;10.642;2023-07-29T09:59:41;21.90;99.90
39899;DHT22;25571;47.876;10.642;2023-07-29T10:02:13;21.70;99.90
39899;DHT22;25571;47.876;10.642;2023-07-29T10:04:41;21.60;99.90
39899;DHT22;25571;47.876;10.642;2023-07-29T10:07:07;21.50;99.90
39899;DHT22;25571;47.876;10.642;2023-07-29T10:09:34;21.40;99.90
39899;DHT22;25571;47.876;10.642;2023-07-29T10:12:00;21.30;99.90
39899;DHT22;25571;47.876;10.642;2023-07-29T10:14:28;21.20;99.90
39899;DHT22;25571;47.876;10.642;2023-07-29T10:16:54;21.10;99.90
39899;DHT22;25571;47.876;10.642;2023-07-29T10:19:20;21.00;99.90
39899;DHT22;25571;47.876;10.642;2023-07-29T10:21:48;20.90;99.90
39899;DHT22;25571;47.876;10.642;2023-07-29T10:24:19;20.90;99.90
39899;DHT22;25571;47.876;10.642;2023-07-29T10:26:49;20.90;99.90
39899;DHT22;25571;47.876;10.642;2023-07-29T10:29:19;20.80;99.90
39899;DHT22;25571;47.876;10.642;2023-07-29T10:31:45;20.80;99.90
39899;DHT22;25571;47.876;10.642;2023-07-29T10:34:12;20.70;99.90
39899;DHT22;25571;47.876;10.642;2023-07-29T10:36:39;20.70;99.90
39899;DHT22;25571;47.876;10.642;2023-07-29T10:39:07;20.70;99.90
39899;DHT22;25571;47.876;10.642;2023-07-29T10:41:55;20.60;99.90
39899;DHT22;25571;47.876;10.642;2023-07-29T10:50:00;20.60;99.90
39899;DHT22;25571;47.876;10.642;2023-07-29T10:55:02;20.60;99.90
39899;DHT22;25571;47.876;10.642;2023-07-29T10:57:39;20.60;99.90
39899;DHT22;25571;47.876;10.642;2023-07-29T11:00:07;20.60;99.90
39899;DHT22;25571;47.876;10.642;2023-07-29T11:02:37;20.60;99.90
39899;DHT22;25571;47.876;10.642;2023-07-29T11:05:08;20.60;99.90
39899;DHT22;25571;47.876;10.642;2023-07-29T11:07:47;20.70;99.90
39899;DHT22;25571;47.876;10.642;2023-07-29T11:10:14;20.70;99.90
39899;DHT22;25571;47.876;10.642;2023-07-29T11:15:22;20.80;99.90
39899;DHT22;25571;47.876;10.642;2023-07-29T11:17:55;20.80;99.90
39899;DHT22;25571;47.876;10.642;2023-07-29T11:20:23;20.80;99.90
39899;DHT22;25571;47.876;10.642;2023-07-29T11:22:50;20.80;99.90
39899;DHT22;25571;47.876;10.642;2023-07-29T11:25:17;20.80;99.90
39899;DHT22;25571;47.876;10.642;2023-07-29T11:27:43;20.80;99.90
39899;DHT22;25571;47.876;10.642;2023-07-29T11:30:11;20.80;99.90
39899;DHT22;25571;47.876;10.642;2023-07-29T11:32:38;20.80;99.90
39899;DHT22;25571;47.876;10.642;2023-07-29T11:35:05;20.80;99.90
39899;DHT22;25571;47.876;10.642;2023-07-29T11:37:33;20.80;99.90
39899;DHT22;25571;47.876;10.642;2023-07-29T11:39:59;20.80;99.90
39899;DHT22;25571;47.876;10.642;2023-07-29T11:42:26;20.80;99.90
39899;DHT22;25571;47.876;10.642;2023-07-29T11:44:52;20.80;99.90
39899;DHT22;25571;47.876;10.642;2023-07-29T11:47:17;20.80;99.90
39899;DHT22;25571;47.876;10.642;2023-07-29T11:49:43;20.80;99.90
39899;DHT22;25571;47.876;10.642;2023-07-29T11:52:09;20.70;99.90
39899;DHT22;25571;47.876;10.642;2023-07-29T11:54:37;20.80;99.90
39899;DHT22;25571;47.876;10.642;2023-07-29T11:57:12;20.80;99.90
39899;DHT22;25571;47.876;10.642;2023-07-29T11:59:39;20.80;99.90
39899;DHT22;25571;47.876;10.642;2023-07-29T12:02:16;20.80;99.90
39899;DHT22;25571;47.876;10.642;2023-07-29T12:04:44;20.70;99.90
39899;DHT22;25571;47.876;10.642;2023-07-29T12:07:13;20.70;99.90
39899;DHT22;25571;47.876;10.642;2023-07-29T12:09:39;20.70;99.90
39899;DHT22;25571;47.876;10.642;2023-07-29T12:12:06;20.70;99.90
39899;DHT22;25571;47.876;10.642;2023-07-29T12:14:32;20.70;99.90
39899;DHT22;25571;47.876;10.642;2023-07-29T12:17:03;20.70;99.90
39899;DHT22;25571;47.876;10.642;2023-07-29T12:19:36;20.70;99.90
39899;DHT22;25571;47.876;10.642;2023-07-29T12:22:03;20.70;99.90
39899;DHT22;25571;47.876;10.642;2023-07-29T12:24:30;20.70;99.90
39899;DHT22;25571;47.876;10.642;2023-07-29T12:26:56;20.70;99.90
39899;DHT22;25571;47.876;10.642;2023-07-29T12:29:22;20.70;99.90
39899;DHT22;25571;47.876;10.642;2023-07-29T12:31:48;20.70;99.90
39899;DHT22;25571;47.876;10.642;2023-07-29T12:34:21;20.70;99.90
39899;DHT22;25571;47.876;10.642;2023-07-29T12:36:51;20.70;99.90
39899;DHT22;25571;47.876;10.642;2023-07-29T12:41:47;20.60;99.90
39899;DHT22;25571;47.876;10.642;2023-07-29T12:44:13;20.70;99.90
39899;DHT22;25571;47.876;10.642;2023-07-29T12:46:39;20.70;99.90
39899;DHT22;25571;47.876;10.642;2023-07-29T12:49:05;20.70;99.90
39899;DHT22;25571;47.876;10.642;2023-07-29T12:51:31;20.60;99.90
39899;DHT22;25571;47.876;10.642;2023-07-29T12:53:57;20.60;99.90
39899;DHT22;25571;47.876;10.642;2023-07-29T12:56:22;20.60;99.90
39899;DHT22;25571;47.876;10.642;2023-07-29T12:58:48;20.60;99.90
39899;DHT22;25571;47.876;10.642;2023-07-29T13:01:14;20.60;99.90
39899;DHT22;25571;47.876;10.642;2023-07-29T13:03:43;20.60;99.90
39899;DHT22;25571;47.876;10.642;2023-07-29T13:06:09;20.60;99.90
39899;DHT22;25571;47.876;10.642;2023-07-29T13:08:34;20.60;99.90
39899;DHT22;25571;47.876;10.642;2023-07-29T13:11:00;20.60;99.90
39899;DHT22;25571;47.876;10.642;2023-07-29T13:13:26;20.60;99.90
39899;DHT22;25571;47.876;10.642;2023-07-29T13:15:51;20.60;99.90
39899;DHT22;25571;47.876;10.642;2023-07-29T13:18:18;20.60;99.90
39899;DHT22;25571;47.876;10.642;2023-07-29T13:20:43;20.60;99.90
39899;DHT22;25571;47.876;10.642;2023-07-29T13:23:09;20.60;99.90
39899;DHT22;25571;47.876;10.642;2023-07-29T13:25:34;20.60;99.90
39899;DHT22;25571;47.876;10.642;2023-07-29T13:28:00;20.60;99.90
39899;DHT22;25571;47.876;10.642;2023-07-29T13:30:26;20.60;99.90
39899;DHT22;25571;47.876;10.642;2023-07-29T13:32:51;20.60;99.90
39899;DHT22;25571;47.876;10.642;2023-07-29T13:35:17;20.60;99.90
39899;DHT22;25571;47.876;10.642;2023-07-29T13:37:42;20.60;99.90
39899;DHT22;25571;47.876;10.642;2023-07-29T13:40:08;20.60;99.90
39899;DHT22;25571;47.876;10.642;2023-07-29T13:42:33;20.60;99.90
39899;DHT22;25571;47.876;10.642;2023-07-29T13:44:59;20.70;99.90
39899;DHT22;25571;47.876;10.642;2023-07-29T13:47:25;20.70;99.90
39899;DHT22;25571;47.876;10.642;2023-07-29T13:49:50;20.70;99.90
39899;DHT22;25571;47.876;10.642;2023-07-29T13:52:16;20.70;99.90
39899;DHT22;25571;47.876;10.642;2023-07-29T13:54:41;20.70;99.90
39899;DHT22;25571;47.876;10.642;2023-07-29T13:57:07;20.70;99.90
39899;DHT22;25571;47.876;10.642;2023-07-29T13:59:33;20.70;99.90
39899;DHT22;25571;47.876;10.642;2023-07-29T14:01:58;20.60;99.90
39899;DHT22;25571;47.876;10.642;2023-07-29T14:04:24;20.70;99.90
39899;DHT22;25571;47.876;10.642;2023-07-29T14:06:49;20.70;99.90
39899;DHT22;25571;47.876;10.642;2023-07-29T14:09:15;20.70;99.90
39899;DHT22;25571;47.876;10.642;2023-07-29T14:11:40;20.70;99.90
39899;DHT22;25571;47.876;10.642;2023-07-29T14:14:07;20.70;99.90
39899;DHT22;25571;47.876;10.642;2023-07-29T14:16:33;20.70;99.90
39899;DHT22;25571;47.876;10.642;2023-07-29T14:18:58;20.70;99.90
39899;DHT22;25571;47.876;10.642;2023-07-29T14:21:24;20.70;99.90
39899;DHT22;25571;47.876;10.642;2023-07-29T14:23:50;20.70;99.90
39899;DHT22;25571;47.876;10.642;2023-07-29T14:26:15;20.70;99.90
39899;DHT22;25571;47.876;10.642;2023-07-29T14:28:41;20.70;99.90
39899;DHT22;25571;47.876;10.642;2023-07-29T14:31:06;20.70;99.90
39899;DHT22;25571;47.876;10.642;2023-07-29T14:33:32;20.70;99.90
39899;DHT22;25571;47.876;10.642;2023-07-29T14:35:58;20.60;99.90
39899;DHT22;25571;47.876;10.642;2023-07-29T14:38:23;20.60;99.90
39899;DHT22;25571;47.876;10.642;2023-07-29T14:40:49;20.60;99.90
39899;DHT22;25571;47.876;10.642;2023-07-29T14:43:17;20.70;99.90
39899;DHT22;25571;47.876;10.642;2023-07-29T14:45:42;20.70;99.90
39899;DHT22;25571;47.876;10.642;2023-07-29T14:48:08;20.70;99.90
39899;DHT22;25571;47.876;10.642;2023-07-29T14:50:33;20.70;99.90
39899;DHT22;25571;47.876;10.642;2023-07-29T14:52:59;20.70;99.90
39899;DHT22;25571;47.876;10.642;2023-07-29T14:55:24;20.70;99.90
39899;DHT22;25571;47.876;10.642;2023-07-29T14:57:50;20.70;99.90
39899;DHT22;25571;47.876;10.642;2023-07-29T15:00:16;20.70;99.90
39899;DHT22;25571;47.876;10.642;2023-07-29T15:02:42;20.70;99.90
39899;DHT22;25571;47.876;10.642;2023-07-29T15:05:08;20.60;99.90
39899;DHT22;25571;47.876;10.642;2023-07-29T15:07:34;20.70;99.90
39899;DHT22;25571;47.876;10.642;2023-07-29T15:09:59;20.70;99.90
39899;DHT22;25571;47.876;10.642;2023-07-29T15:12:25;20.60;99.90
39899;DHT22;25571;47.876;10.642;2023-07-29T15:14:54;20.70;99.90
39899;DHT22;25571;47.876;10.642;2023-07-29T15:17:19;20.70;99.90
39899;DHT22;25571;47.876;10.642;2023-07-29T15:19:48;20.70;99.90
39899;DHT22;25571;47.876;10.642;2023-07-29T15:22:16;20.70;99.90
39899;DHT22;25571;47.876;10.642;2023-07-29T15:24:42;20.70;99.90
39899;DHT22;25571;47.876;10.642;2023-07-29T15:27:11;20.70;99.90
39899;DHT22;25571;47.876;10.642;2023-07-29T15:29:37;20.70;99.90